Dame Des Tropiques — FQJE — position and weather

sailwx.info

Track history (hours):
 
Tides and Currents Weather Stations Pressure Air Temp Water Temp Dewpoint Dewpoint Depression Visibility Wind Speed Wind Dir Waves Ship Positions

Dame Des Tropiques

Last reported at 2015-Jul-17 16:18 UTC. Time now 2015-Jul-28 03:28 UTC.
Position N 42°34' E 008°47'.
Warning: this ship's position is 10 days out of date.

Length 28 m.

Type: Sailing vessel. MMSI: 347002100.

Date/timePositionNaut miles runAvg speedWind from/ knotsBaromVisibWave heightAir tempDewpointWater temp
2015-Jul-17 16:18N 42°34' E 008°47'5 0.8
2015-Jul-17 09:28N 42°37' E 008°52'3 1.8
2015-Jul-17 07:31N 42°38' E 008°57'0 0.0
2015-Jul-17 05:28N 42°38' E 008°57'0 0.0
2015-Jul-17 04:32N 42°38' E 008°57'0 0.0
2015-Jul-17 00:32N 42°38' E 008°57'0 0.0
2015-Jul-16 23:31N 42°38' E 008°57'0 0.0
2015-Jul-16 19:20N 42°38' E 008°57'5 1.0
2015-Jul-16 14:24N 42°41' E 009°02'11 0.5
2015-Jul-15 14:15N 42°41' E 009°17'8 0.9
2015-Jul-15 05:29N 42°45' E 009°09'  
2015-Jul-12 14:31N 43°14' E 005°19'5 4.7
2015-Jul-12 13:32N 43°18' E 005°22'0 0.0
2015-Jul-12 12:26N 43°18' E 005°22'0 0.0
2015-Jul-12 11:26N 43°18' E 005°22'0 0.0
2015-Jul-12 10:29N 43°18' E 005°22'0 0.0
2015-Jul-12 09:20N 43°18' E 005°22'0 0.0
2015-Jul-12 08:32N 43°18' E 005°22'0 0.0
2015-Jul-12 07:32N 43°18' E 005°22'0 0.0
2015-Jul-12 06:32N 43°18' E 005°22'0 0.0
2015-Jul-12 05:32N 43°18' E 005°22'0 0.0
2015-Jul-12 04:32N 43°18' E 005°22'0 0.0
2015-Jul-12 03:32N 43°18' E 005°22'0 0.0
2015-Jul-12 02:32N 43°18' E 005°22'0 0.0
2015-Jul-12 01:32N 43°18' E 005°22'0 0.0
2015-Jul-12 00:29N 43°18' E 005°22'0 0.0
2015-Jul-11 23:32N 43°18' E 005°22'0 0.0
2015-Jul-11 22:32N 43°18' E 005°22'0 0.0
2015-Jul-11 21:32N 43°18' E 005°22'0 0.0
2015-Jul-11 20:32N 43°18' E 005°22'0 0.0
2015-Jul-11 19:26N 43°18' E 005°22'0 0.0
2015-Jul-11 18:32N 43°18' E 005°22'0 0.0
2015-Jul-11 17:29N 43°18' E 005°22'0 0.0
2015-Jul-11 16:32N 43°18' E 005°22'0 0.0
2015-Jul-11 15:26N 43°18' E 005°22'0 0.0
2015-Jul-11 14:32N 43°18' E 005°22'0 0.0
2015-Jul-11 13:32N 43°18' E 005°22'0 0.0
2015-Jul-11 12:29N 43°18' E 005°22'0 0.0
2015-Jul-11 11:32N 43°18' E 005°22'0 0.0
2015-Jul-11 10:32N 43°18' E 005°22'0 0.0
2015-Jul-11 09:32N 43°18' E 005°22'0 0.0
2015-Jul-11 08:29N 43°18' E 005°22'0 0.0
2015-Jul-11 07:26N 43°18' E 005°22'0 0.0
2015-Jul-11 06:32N 43°18' E 005°22'0 0.0
2015-Jul-11 05:32N 43°18' E 005°22'0 0.0
2015-Jul-11 04:32N 43°18' E 005°22'0 0.0
2015-Jul-11 03:29N 43°18' E 005°22'0 0.0
2015-Jul-11 02:32N 43°18' E 005°22'0 0.0
2015-Jul-11 01:32N 43°18' E 005°22'0 0.0
2015-Jul-11 00:32N 43°18' E 005°22'0 0.0
2015-Jul-10 23:32N 43°18' E 005°22'0 0.0
2015-Jul-10 22:26N 43°18' E 005°22'0 0.0
2015-Jul-10 21:20N 43°18' E 005°22'0 0.0
2015-Jul-10 20:32N 43°18' E 005°22'0 0.0
2015-Jul-10 19:26N 43°18' E 005°22'0 0.0
2015-Jul-10 18:32N 43°18' E 005°22'0 0.0
2015-Jul-10 17:32N 43°18' E 005°22'0 0.0
2015-Jul-10 16:32N 43°18' E 005°22'0 0.0
2015-Jul-10 15:32N 43°18' E 005°22'0 0.0
2015-Jul-10 14:26N 43°18' E 005°22'0 0.0
2015-Jul-10 13:32N 43°18' E 005°22'0 0.0
2015-Jul-10 12:32N 43°18' E 005°22'0 0.0
2015-Jul-10 10:32N 43°18' E 005°22'1 1.3
2015-Jul-10 09:34N 43°17' E 005°21'  
2015-Jul-07 22:05N 43°02' E 006°14'  
Track history (hours):
 
Tides and Currents Weather Stations Pressure Air Temp Water Temp Dewpoint Dewpoint Depression Visibility Wind Speed Wind Dir Waves Ship Positions

Dame Des Tropiques

Last reported at 2015-Jul-17 16:18 UTC. Time now 2015-Jul-28 03:28 UTC.
Position N 42°34' E 008°47'.
Warning: this ship's position is 10 days out of date.

Length 28 m.

Type: Sailing vessel. MMSI: 347002100.

Date/timePositionNaut miles runAvg speedWind from/ knotsBaromVisibWave heightAir tempDewpointWater temp
2015-Jul-17 16:18N 42°34' E 008°47'5 0.8
2015-Jul-17 09:28N 42°37' E 008°52'3 1.8
2015-Jul-17 07:31N 42°38' E 008°57'0 0.0
2015-Jul-17 05:28N 42°38' E 008°57'0 0.0
2015-Jul-17 04:32N 42°38' E 008°57'0 0.0
2015-Jul-17 00:32N 42°38' E 008°57'0 0.0
2015-Jul-16 23:31N 42°38' E 008°57'0 0.0
2015-Jul-16 19:20N 42°38' E 008°57'5 1.0
2015-Jul-16 14:24N 42°41' E 009°02'11 0.5
2015-Jul-15 14:15N 42°41' E 009°17'8 0.9
2015-Jul-15 05:29N 42°45' E 009°09'  
2015-Jul-12 14:31N 43°14' E 005°19'5 4.7
2015-Jul-12 13:32N 43°18' E 005°22'0 0.0
2015-Jul-12 12:26N 43°18' E 005°22'0 0.0
2015-Jul-12 11:26N 43°18' E 005°22'0 0.0
2015-Jul-12 10:29N 43°18' E 005°22'0 0.0
2015-Jul-12 09:20N 43°18' E 005°22'0 0.0
2015-Jul-12 08:32N 43°18' E 005°22'0 0.0
2015-Jul-12 07:32N 43°18' E 005°22'0 0.0
2015-Jul-12 06:32N 43°18' E 005°22'0 0.0
2015-Jul-12 05:32N 43°18' E 005°22'0 0.0
2015-Jul-12 04:32N 43°18' E 005°22'0 0.0
2015-Jul-12 03:32N 43°18' E 005°22'0 0.0
2015-Jul-12 02:32N 43°18' E 005°22'0 0.0
2015-Jul-12 01:32N 43°18' E 005°22'0 0.0
2015-Jul-12 00:29N 43°18' E 005°22'0 0.0
2015-Jul-11 23:32N 43°18' E 005°22'0 0.0
2015-Jul-11 22:32N 43°18' E 005°22'0 0.0
2015-Jul-11 21:32N 43°18' E 005°22'0 0.0
2015-Jul-11 20:32N 43°18' E 005°22'0 0.0
2015-Jul-11 19:26N 43°18' E 005°22'0 0.0
2015-Jul-11 18:32N 43°18' E 005°22'0 0.0
2015-Jul-11 17:29N 43°18' E 005°22'0 0.0
2015-Jul-11 16:32N 43°18' E 005°22'0 0.0
2015-Jul-11 15:26N 43°18' E 005°22'0 0.0
2015-Jul-11 14:32N 43°18' E 005°22'0 0.0
2015-Jul-11 13:32N 43°18' E 005°22'0 0.0
2015-Jul-11 12:29N 43°18' E 005°22'0 0.0
2015-Jul-11 11:32N 43°18' E 005°22'0 0.0
2015-Jul-11 10:32N 43°18' E 005°22'0 0.0
2015-Jul-11 09:32N 43°18' E 005°22'0 0.0
2015-Jul-11 08:29N 43°18' E 005°22'0 0.0
2015-Jul-11 07:26N 43°18' E 005°22'0 0.0
2015-Jul-11 06:32N 43°18' E 005°22'0 0.0
2015-Jul-11 05:32N 43°18' E 005°22'0 0.0
2015-Jul-11 04:32N 43°18' E 005°22'0 0.0
2015-Jul-11 03:29N 43°18' E 005°22'0 0.0
2015-Jul-11 02:32N 43°18' E 005°22'0 0.0
2015-Jul-11 01:32N 43°18' E 005°22'0 0.0
2015-Jul-11 00:32N 43°18' E 005°22'0 0.0
2015-Jul-10 23:32N 43°18' E 005°22'0 0.0
2015-Jul-10 22:26N 43°18' E 005°22'0 0.0
2015-Jul-10 21:20N 43°18' E 005°22'0 0.0
2015-Jul-10 20:32N 43°18' E 005°22'0 0.0
2015-Jul-10 19:26N 43°18' E 005°22'0 0.0
2015-Jul-10 18:32N 43°18' E 005°22'0 0.0
2015-Jul-10 17:32N 43°18' E 005°22'0 0.0
2015-Jul-10 16:32N 43°18' E 005°22'0 0.0
2015-Jul-10 15:32N 43°18' E 005°22'0 0.0
2015-Jul-10 14:26N 43°18' E 005°22'0 0.0
2015-Jul-10 13:32N 43°18' E 005°22'0 0.0
2015-Jul-10 12:32N 43°18' E 005°22'0 0.0
2015-Jul-10 10:32N 43°18' E 005°22'1 1.3
2015-Jul-10 09:34N 43°17' E 005°21'  
2015-Jul-07 22:05N 43°02' E 006°14'  

Dump ship's entire track history